createdAt,value
2018-02-12T00:00:42.589Z,30.33
2018-02-12T00:03:10.816Z,27.43
2018-02-12T00:05:38.997Z,31.90
2018-02-12T00:08:07.955Z,33.83
2018-02-12T00:10:36.118Z,28.53
2018-02-12T00:13:04.300Z,33.10
2018-02-12T00:15:32.457Z,29.73
2018-02-12T00:18:00.619Z,28.23
2018-02-12T00:20:28.775Z,34.37
2018-02-12T00:22:57.776Z,32.60
2018-02-12T00:25:25.931Z,29.07
2018-02-12T00:27:54.868Z,29.40
2018-02-12T00:30:23.052Z,31.50
2018-02-12T00:32:51.232Z,30.77
2018-02-12T00:35:19.396Z,34.37
2018-02-12T00:37:47.574Z,34.33
2018-02-12T00:40:15.767Z,32.77
2018-02-12T00:42:43.941Z,27.13
2018-02-12T00:45:12.106Z,28.40
2018-02-12T00:47:40.292Z,33.50
2018-02-12T00:50:08.466Z,26.30
2018-02-12T00:52:36.634Z,28.13
2018-02-12T00:55:04.813Z,31.37
2018-02-12T00:57:32.981Z,24.63
2018-02-12T01:00:01.175Z,28.20
2018-02-12T01:02:29.370Z,32.93
2018-02-12T01:04:58.301Z,28.93
2018-02-12T01:07:26.481Z,29.97
2018-02-12T01:09:54.638Z,29.13
2018-02-12T01:12:22.821Z,29.13
2018-02-12T01:14:50.988Z,27.53
2018-02-12T01:17:19.150Z,26.03
2018-02-12T01:19:47.323Z,23.43
2018-02-12T01:22:16.278Z,29.17
2018-02-12T01:24:44.442Z,29.73
2018-02-12T01:27:12.605Z,35.90
2018-02-12T01:29:40.766Z,27.23
2018-02-12T01:32:08.958Z,25.87
2018-02-12T01:34:37.114Z,25.70
2018-02-12T01:37:05.281Z,27.73
2018-02-12T01:39:33.447Z,30.20
2018-02-12T01:42:01.610Z,31.23
2018-02-12T01:44:30.539Z,26.93
2018-02-12T01:46:58.700Z,26.73
2018-02-12T01:49:26.903Z,32.03
2018-02-12T01:51:55.126Z,25.40
2018-02-12T01:54:23.270Z,35.07
2018-02-12T01:56:51.447Z,27.43
2018-02-12T01:59:19.625Z,24.93
2018-02-12T02:01:47.788Z,22.93
2018-02-12T02:04:15.971Z,21.57
2018-02-12T02:06:44.129Z,29.00
2018-02-12T02:09:12.297Z,26.90
2018-02-12T02:11:40.453Z,26.93
2018-02-12T02:14:08.726Z,29.70
2018-02-12T02:16:36.914Z,30.70
2018-02-12T02:19:05.073Z,29.40
2018-02-12T02:21:33.258Z,30.93
2018-02-12T02:24:01.423Z,29.03
2018-02-12T02:26:29.580Z,33.30
2018-02-12T02:28:57.762Z,29.77
2018-02-12T02:31:25.929Z,32.53
2018-02-12T02:33:54.091Z,33.33
2018-02-12T02:36:23.018Z,33.97
2018-02-12T02:38:51.188Z,26.40
2018-02-12T02:41:19.354Z,29.37
2018-02-12T02:43:47.533Z,26.27
2018-02-12T02:46:15.691Z,25.53
2018-02-12T02:48:43.894Z,29.70
2018-02-12T02:51:12.071Z,28.23
2018-02-12T02:53:40.242Z,27.50
2018-02-12T02:56:08.423Z,28.43
2018-02-12T02:58:36.606Z,30.73
2018-02-12T03:01:04.763Z,28.03
2018-02-12T03:03:32.946Z,29.17
2018-02-12T03:06:01.114Z,28.80
2018-02-12T03:08:29.285Z,29.13
2018-02-12T03:10:57.495Z,30.90
2018-02-12T03:13:25.655Z,32.40
2018-02-12T03:15:53.821Z,31.23
2018-02-12T03:18:21.999Z,30.20
2018-02-12T03:20:50.182Z,28.57
2018-02-12T03:23:18.373Z,28.77
2018-02-12T03:25:46.537Z,26.63
2018-02-12T03:28:14.701Z,29.90
2018-02-12T03:30:42.859Z,31.73
2018-02-12T03:33:11.046Z,31.77
2018-02-12T03:35:39.204Z,33.60
2018-02-12T03:38:07.386Z,31.73
2018-02-12T03:40:35.564Z,35.37
2018-02-12T03:43:03.721Z,27.33
2018-02-12T03:45:31.914Z,36.20
2018-02-12T03:48:00.104Z,27.90
2018-02-12T03:50:29.063Z,33.17
2018-02-12T03:52:57.225Z,33.57
2018-02-12T03:55:25.417Z,39.23
2018-02-12T03:57:53.585Z,36.63
2018-02-12T04:00:21.778Z,37.67
2018-02-12T04:02:49.938Z,37.43
2018-02-12T04:05:18.097Z,34.13
2018-02-12T04:07:46.289Z,41.87
2018-02-12T04:10:14.469Z,38.00
2018-02-12T04:12:42.638Z,36.40
2018-02-12T04:15:10.795Z,36.23
2018-02-12T04:17:38.948Z,33.33
2018-02-12T04:20:07.895Z,40.70
2018-02-12T04:22:36.345Z,36.10
2018-02-12T04:25:04.529Z,37.90
2018-02-12T04:27:32.699Z,39.17
2018-02-12T04:30:00.850Z,34.73
2018-02-12T04:32:29.776Z,33.20
2018-02-12T04:34:57.939Z,35.23
2018-02-12T04:37:26.114Z,38.47
2018-02-12T04:39:54.269Z,33.87
2018-02-12T04:42:22.440Z,38.13
2018-02-12T04:44:51.421Z,34.30
2018-02-12T04:47:20.341Z,37.87
2018-02-12T04:49:48.514Z,36.30
2018-02-12T04:52:16.702Z,33.10
2018-02-12T04:54:44.862Z,33.37
2018-02-12T04:57:13.026Z,37.50
2018-02-12T04:59:41.187Z,36.93
2018-02-12T05:02:10.116Z,32.93
2018-02-12T05:04:38.272Z,30.77
2018-02-12T05:07:06.442Z,35.97
2018-02-12T05:09:34.610Z,35.60
2018-02-12T05:12:03.562Z,41.90
2018-02-12T05:14:31.726Z,34.03
2018-02-12T05:16:59.901Z,34.97
2018-02-12T05:19:28.057Z,33.40
2018-02-12T05:21:56.229Z,34.77
2018-02-12T05:24:24.386Z,38.73
2018-02-12T05:26:52.562Z,35.93
2018-02-12T05:29:20.755Z,37.53
2018-02-12T05:31:48.913Z,37.17
2018-02-12T05:34:17.102Z,36.63
2018-02-12T05:36:45.267Z,36.93
2018-02-12T05:39:13.430Z,42.13
2018-02-12T05:41:41.624Z,46.03
2018-02-12T05:44:09.782Z,42.93
2018-02-12T05:46:37.954Z,37.50
2018-02-12T05:49:06.148Z,38.63
2018-02-12T05:51:34.316Z,32.97
2018-02-12T05:54:02.473Z,36.13
2018-02-12T05:56:31.426Z,38.40
2018-02-12T05:58:59.602Z,38.37
2018-02-12T06:01:27.825Z,35.60
2018-02-12T06:03:55.988Z,31.83
2018-02-12T06:06:24.931Z,35.63
2018-02-12T06:08:53.090Z,38.07
2018-02-12T06:11:21.255Z,33.90
2018-02-12T06:13:49.437Z,34.60
2018-02-12T06:16:17.630Z,36.93
2018-02-12T06:18:45.789Z,34.67
2018-02-12T06:21:13.964Z,27.60
2018-02-12T06:23:42.209Z,36.07
2018-02-12T06:26:10.379Z,36.83
2018-02-12T06:28:39.318Z,35.10
2018-02-12T06:31:07.511Z,32.60
2018-02-12T06:33:35.692Z,33.50
2018-02-12T06:36:03.869Z,32.37
2018-02-12T06:38:32.033Z,34.43
2018-02-12T06:41:00.242Z,32.10
2018-02-12T06:43:29.178Z,34.13
2018-02-12T06:45:57.375Z,34.13
2018-02-12T06:48:25.561Z,31.10
2018-02-12T06:50:53.749Z,35.80
2018-02-12T06:53:22.730Z,32.07
2018-02-12T06:55:51.010Z,38.70
2018-02-12T06:58:19.210Z,32.73
2018-02-12T07:00:48.164Z,28.00
2018-02-12T07:03:16.373Z,34.73
2018-02-12T07:05:45.304Z,27.43
2018-02-12T07:08:13.511Z,31.40
2018-02-12T07:10:41.697Z,29.80
2018-02-12T07:13:09.872Z,30.43
2018-02-12T07:15:38.100Z,35.17
2018-02-12T07:18:06.316Z,35.03
2018-02-12T07:20:34.477Z,46.57
2018-02-12T07:23:03.428Z,32.97
2018-02-12T07:25:31.632Z,33.33
2018-02-12T07:27:59.835Z,36.47
2018-02-12T07:30:28.007Z,31.83
2018-02-12T07:32:56.334Z,32.10
2018-02-12T07:35:24.549Z,29.90
2018-02-12T07:37:52.744Z,27.40
2018-02-12T07:40:21.682Z,28.40
2018-02-12T07:42:49.909Z,38.27
2018-02-12T07:45:18.886Z,30.60
2018-02-12T07:47:47.074Z,34.57
2018-02-12T07:50:15.251Z,32.17
2018-02-12T07:52:43.434Z,31.90
2018-02-12T07:55:12.384Z,35.97
2018-02-12T07:57:40.586Z,34.53
2018-02-12T08:00:08.836Z,30.63
2018-02-12T08:02:37.045Z,33.20
2018-02-12T08:05:05.264Z,34.43
2018-02-12T08:07:33.439Z,34.10
2018-02-12T08:10:01.657Z,29.70
2018-02-12T08:12:29.845Z,30.17
2018-02-12T08:14:58.075Z,31.70
2018-02-12T08:17:26.386Z,37.53
2018-02-12T08:19:54.578Z,34.00
2018-02-12T08:22:23.531Z,32.07
2018-02-12T08:24:51.707Z,30.93
2018-02-12T08:27:19.872Z,34.83
2018-02-12T08:29:48.083Z,33.77
2018-02-12T08:32:16.273Z,34.50
2018-02-12T08:34:45.226Z,33.50
2018-02-12T08:37:13.433Z,31.03
2018-02-12T08:39:41.602Z,35.90
2018-02-12T08:42:09.777Z,32.27
2018-02-12T08:44:37.964Z,31.40
2018-02-12T08:47:06.915Z,30.13
2018-02-12T08:49:35.158Z,30.60
2018-02-12T08:52:03.348Z,32.03
2018-02-12T08:54:31.527Z,30.27
2018-02-12T08:56:59.712Z,30.03
2018-02-12T08:59:28.426Z,33.83
2018-02-12T09:01:56.623Z,39.33
2018-02-12T09:04:25.587Z,34.43
2018-02-12T09:06:53.792Z,31.80
2018-02-12T09:09:22.735Z,33.60
2018-02-12T09:11:51.002Z,36.23
2018-02-12T09:14:19.388Z,37.20
2018-02-12T09:16:47.562Z,35.53
2018-02-12T09:19:15.759Z,40.80
2018-02-12T09:21:43.970Z,39.90
2018-02-12T09:24:12.921Z,40.27
2018-02-12T09:26:41.119Z,39.10
2018-02-12T09:29:09.307Z,44.10
2018-02-12T09:31:38.248Z,41.07
2018-02-12T09:34:06.500Z,31.93
2018-02-12T09:36:34.699Z,38.90
2018-02-12T09:39:02.914Z,42.87
2018-02-12T09:41:31.083Z,41.43
2018-02-12T09:43:59.264Z,41.40
2018-02-12T09:46:27.453Z,39.57
2018-02-12T09:48:56.391Z,40.47
2018-02-12T09:51:24.555Z,37.77
2018-02-12T09:53:52.802Z,35.13
2018-02-12T09:56:21.728Z,36.20
2018-02-12T09:58:49.939Z,33.27
2018-02-12T10:01:18.125Z,34.07
2018-02-12T10:03:46.294Z,30.67
2018-02-12T10:06:14.474Z,37.43
2018-02-12T10:08:42.674Z,41.00
2018-02-12T10:11:10.843Z,37.33
2018-02-12T10:13:39.886Z,37.50
2018-02-12T10:16:08.118Z,36.67
2018-02-12T10:18:36.312Z,38.77
2018-02-12T10:21:04.483Z,37.17
2018-02-12T10:23:32.656Z,35.37
2018-02-12T10:26:00.854Z,34.07
2018-02-12T10:28:29.025Z,35.13
2018-02-12T10:30:57.238Z,31.80
2018-02-12T10:33:25.449Z,31.90
2018-02-12T10:35:53.635Z,29.17
2018-02-12T10:38:21.874Z,33.70
2018-02-12T10:40:50.827Z,65.20
2018-02-12T10:43:19.001Z,71.73
2018-02-12T10:45:47.197Z,71.63
2018-02-12T10:48:15.400Z,62.50
2018-02-12T10:50:44.353Z,37.57
2018-02-12T10:53:12.559Z,34.40
2018-02-12T10:55:41.499Z,36.10
2018-02-12T10:58:09.712Z,31.87
2018-02-12T11:00:37.896Z,31.43
2018-02-12T11:03:06.088Z,27.97
2018-02-12T11:05:35.026Z,32.13
2018-02-12T11:08:03.196Z,30.60
2018-02-12T11:10:31.370Z,27.70
2018-02-12T11:12:59.595Z,29.43
2018-02-12T11:15:28.642Z,28.53
2018-02-12T11:17:56.817Z,27.20
2018-02-12T11:20:25.000Z,30.53
2018-02-12T11:22:53.163Z,26.30
2018-02-12T11:25:21.366Z,30.50
2018-02-12T11:27:49.578Z,29.13
2018-02-12T11:30:18.513Z,34.30
2018-02-12T11:32:46.671Z,30.90
2018-02-12T11:35:14.853Z,30.40
2018-02-12T11:37:43.021Z,30.13
2018-02-12T11:40:11.248Z,28.33
2018-02-12T11:42:39.417Z,31.10
2018-02-12T11:45:07.621Z,26.77
2018-02-12T11:47:35.798Z,33.17
2018-02-12T11:50:03.968Z,31.47
2018-02-12T11:52:32.917Z,30.57
2018-02-12T11:55:01.086Z,28.80
2018-02-12T11:57:29.281Z,26.57
2018-02-12T11:59:57.454Z,27.10
2018-02-12T12:02:25.635Z,26.40
2018-02-12T12:04:53.832Z,22.97
2018-02-12T12:07:22.771Z,28.63
2018-02-12T12:09:50.970Z,24.10
2018-02-12T12:12:19.130Z,26.60
2018-02-12T12:14:47.295Z,27.40
2018-02-12T12:17:15.458Z,26.63
2018-02-12T12:19:43.620Z,25.47
2018-02-12T12:22:11.807Z,25.90
2018-02-12T12:24:39.973Z,29.70
2018-02-12T12:27:08.134Z,26.50
2018-02-12T12:29:36.326Z,27.00
2018-02-12T12:32:04.494Z,25.83
2018-02-12T12:34:32.657Z,27.57
2018-02-12T12:37:00.849Z,29.53
2018-02-12T12:39:29.017Z,28.47
2018-02-12T12:41:57.192Z,28.60
2018-02-12T12:44:25.369Z,30.67
2018-02-12T12:46:53.554Z,31.30
2018-02-12T12:49:21.723Z,37.83
2018-02-12T12:51:49.944Z,43.10
2018-02-12T12:54:18.999Z,25.70
2018-02-12T12:56:47.185Z,28.40
2018-02-12T12:59:15.368Z,26.77
2018-02-12T13:01:43.548Z,25.17
2018-02-12T13:04:11.722Z,30.17
2018-02-12T13:06:39.903Z,35.57
2018-02-12T13:09:08.075Z,32.73
2018-02-12T13:11:36.237Z,31.47
2018-02-12T13:14:05.173Z,28.70
2018-02-12T13:16:34.124Z,31.87
2018-02-12T13:19:02.319Z,26.23
2018-02-12T13:21:30.500Z,28.50
2018-02-12T13:23:58.673Z,26.50
2018-02-12T13:26:26.847Z,28.70
2018-02-12T13:28:55.013Z,26.17
2018-02-12T13:31:23.181Z,28.30
2018-02-12T13:33:51.355Z,34.70
2018-02-12T13:36:19.526Z,25.70
2018-02-12T13:38:47.714Z,26.53
2018-02-12T13:41:15.882Z,30.30
2018-02-12T13:43:44.072Z,34.23
2018-02-12T13:46:13.018Z,33.50
2018-02-12T13:48:41.183Z,29.10
2018-02-12T13:51:09.465Z,30.97
2018-02-12T13:53:37.636Z,31.43
2018-02-12T13:56:05.819Z,29.70
2018-02-12T13:58:34.061Z,27.23
2018-02-12T14:01:02.279Z,27.37
2018-02-12T14:03:30.424Z,25.93
2018-02-12T14:05:58.593Z,30.20
2018-02-12T14:08:26.757Z,29.43
2018-02-12T14:10:55.686Z,28.20
2018-02-12T14:13:23.862Z,27.53
2018-02-12T14:15:52.035Z,27.40
2018-02-12T14:18:20.205Z,26.13
2018-02-12T14:20:48.380Z,27.07
2018-02-12T14:23:16.556Z,26.83
2018-02-12T14:25:44.728Z,26.20
2018-02-12T14:28:12.899Z,24.47
2018-02-12T14:30:41.072Z,30.90
2018-02-12T14:33:09.282Z,25.60
2018-02-12T14:35:37.463Z,31.00
2018-02-12T14:38:05.626Z,29.03
2018-02-12T14:40:33.802Z,27.40
2018-02-12T14:43:02.018Z,29.60
2018-02-12T14:45:31.036Z,30.23
2018-02-12T14:47:59.214Z,27.17
2018-02-12T14:50:27.399Z,33.53
2018-02-12T14:52:55.567Z,30.87
2018-02-12T14:55:23.742Z,27.40
2018-02-12T14:57:51.912Z,35.80
2018-02-12T15:00:20.089Z,34.00
2018-02-12T15:02:48.262Z,29.33
2018-02-12T15:05:16.436Z,29.10
2018-02-12T15:07:44.610Z,32.97
2018-02-12T15:10:12.815Z,31.13
2018-02-12T15:12:41.761Z,35.90
2018-02-12T15:15:09.968Z,44.87
2018-02-12T15:17:38.159Z,50.20
2018-02-12T15:20:06.329Z,46.47
2018-02-12T15:22:34.523Z,50.07
2018-02-12T15:25:02.717Z,43.40
2018-02-12T15:27:31.671Z,40.37
2018-02-12T15:29:59.858Z,35.30
2018-02-12T15:32:28.043Z,38.33
2018-02-12T15:34:56.228Z,46.67
2018-02-12T15:37:25.214Z,40.33
2018-02-12T15:39:53.411Z,47.00
2018-02-12T15:42:22.379Z,41.30
2018-02-12T15:44:50.560Z,48.57
2018-02-12T15:47:18.758Z,38.83
2018-02-12T15:49:46.973Z,43.33
2018-02-12T15:52:15.167Z,41.57
2018-02-12T15:54:43.382Z,45.13
2018-02-12T15:57:12.342Z,48.20
2018-02-12T15:59:40.546Z,41.93
2018-02-12T16:02:09.509Z,38.70
2018-02-12T16:04:39.604Z,50.60
2018-02-12T16:07:07.789Z,38.57
2018-02-12T16:09:35.984Z,35.67
2018-02-12T16:12:04.175Z,38.77
2018-02-12T16:14:33.123Z,40.90
2018-02-12T16:17:01.382Z,40.50
2018-02-12T16:19:29.665Z,37.47
2018-02-12T16:21:57.843Z,38.93
2018-02-12T16:24:26.022Z,40.20
2018-02-12T16:26:54.202Z,34.77
2018-02-12T16:29:22.392Z,37.50
2018-02-12T16:31:50.581Z,40.20
2018-02-12T16:34:18.767Z,32.77
2018-02-12T16:36:47.737Z,39.70
2018-02-12T16:39:15.982Z,45.50
2018-02-12T16:41:44.153Z,40.83
2018-02-12T16:44:12.337Z,39.00
2018-02-12T16:46:40.599Z,37.50
2018-02-12T16:49:08.778Z,36.77
2018-02-12T16:51:36.981Z,40.23
2018-02-12T16:54:05.176Z,66.73
2018-02-12T16:56:33.374Z,48.63
2018-02-12T16:59:02.352Z,46.43
2018-02-12T17:01:31.301Z,43.73
2018-02-12T17:03:59.482Z,45.87
2018-02-12T17:06:27.714Z,49.77
2018-02-12T17:08:56.114Z,45.60
2018-02-12T17:11:24.293Z,43.60
2018-02-12T17:13:52.514Z,38.90
2018-02-12T17:16:20.711Z,39.90
2018-02-12T17:18:49.653Z,41.00
2018-02-12T17:21:17.842Z,40.10
2018-02-12T17:23:46.026Z,44.70
2018-02-12T17:26:14.202Z,37.37
2018-02-12T17:28:42.399Z,37.00
2018-02-12T17:31:11.339Z,33.43
2018-02-12T17:33:39.533Z,36.67
2018-02-12T17:36:07.702Z,33.77
2018-02-12T17:38:35.866Z,33.67
2018-02-12T17:41:04.060Z,29.20
2018-02-12T17:43:32.257Z,31.13
2018-02-12T17:46:01.197Z,32.20
2018-02-12T17:48:29.414Z,31.87
2018-02-12T17:50:57.612Z,30.53
2018-02-12T17:53:26.554Z,29.50
2018-02-12T17:55:54.734Z,30.73
2018-02-12T17:58:22.924Z,29.53
2018-02-12T18:00:51.170Z,31.07
2018-02-12T18:03:19.384Z,23.63
2018-02-12T18:05:47.622Z,25.60
2018-02-12T18:08:15.823Z,32.77
2018-02-12T18:10:44.011Z,32.50
2018-02-12T18:13:12.188Z,32.33
2018-02-12T18:15:40.362Z,31.70
2018-02-12T18:18:08.536Z,34.23
2018-02-12T18:20:36.713Z,32.73
2018-02-12T18:23:04.882Z,34.00
2018-02-12T18:25:33.078Z,31.30
2018-02-12T18:28:02.014Z,32.83
2018-02-12T18:30:30.196Z,35.27
2018-02-12T18:32:58.366Z,41.07
2018-02-12T18:35:27.401Z,35.77
2018-02-12T18:37:56.351Z,33.87
2018-02-12T18:40:24.552Z,39.47
2018-02-12T18:42:55.972Z,44.93
2018-02-12T18:58:24.186Z,31.70
2018-02-12T19:00:53.150Z,33.97
2018-02-12T19:03:21.353Z,34.27
2018-02-12T19:05:50.302Z,34.77
2018-02-12T19:08:18.492Z,37.37
2018-02-12T19:10:46.698Z,32.43
2018-02-12T19:13:15.646Z,31.93
2018-02-12T19:15:43.810Z,35.77
2018-02-12T19:18:11.994Z,34.60
2018-02-12T19:20:40.165Z,34.70
2018-02-12T19:23:08.345Z,35.43
2018-02-12T19:25:36.555Z,34.90
2018-02-12T19:28:04.751Z,34.03
2018-02-12T19:30:33.706Z,41.13
2018-02-12T19:33:01.886Z,38.60
2018-02-12T19:35:30.064Z,37.87
2018-02-12T19:37:58.236Z,41.10
2018-02-12T19:40:26.413Z,34.07
2018-02-12T19:42:54.604Z,38.63
2018-02-12T19:45:23.556Z,34.73
2018-02-12T19:47:51.754Z,39.90
2018-02-12T19:50:19.952Z,38.50
2018-02-12T19:52:48.892Z,36.70
2018-02-12T19:55:17.085Z,37.83
2018-02-12T19:57:45.274Z,40.13
2018-02-12T20:00:13.467Z,35.50
2018-02-12T20:02:42.414Z,42.43
2018-02-12T20:05:10.602Z,34.53
2018-02-12T20:07:39.058Z,58.30
2018-02-12T20:10:07.245Z,34.80
2018-02-12T20:12:35.422Z,42.20
2018-02-12T20:15:03.598Z,43.77
2018-02-12T20:17:31.784Z,39.27
2018-02-12T20:19:59.950Z,37.60
2018-02-12T20:22:28.118Z,44.80
2018-02-12T20:24:56.301Z,44.10
2018-02-12T20:27:24.479Z,41.43
2018-02-12T20:29:52.654Z,35.03
2018-02-12T20:32:20.839Z,40.30
2018-02-12T20:34:49.047Z,42.00
2018-02-12T20:37:17.978Z,41.50
2018-02-12T20:39:46.167Z,37.00
2018-02-12T20:42:14.366Z,61.47
2018-02-12T20:44:42.567Z,43.30
2018-02-12T20:47:11.498Z,37.83
2018-02-12T20:49:39.679Z,42.23
2018-02-12T20:52:07.862Z,41.40
2018-02-12T20:54:36.055Z,43.20
2018-02-12T20:57:04.243Z,37.60
2018-02-12T20:59:33.195Z,47.00
2018-02-12T21:02:01.383Z,44.13
2018-02-12T21:04:29.561Z,45.20
2018-02-12T21:06:57.755Z,41.63
2018-02-12T21:09:25.918Z,38.90
2018-02-12T21:11:54.101Z,36.47
2018-02-12T21:14:22.291Z,45.83
2018-02-12T21:16:51.223Z,39.13
2018-02-12T21:19:19.404Z,39.53
2018-02-12T21:21:47.579Z,37.63
2018-02-12T21:24:15.770Z,39.03
2018-02-12T21:26:43.940Z,35.50
2018-02-12T21:29:12.110Z,34.13
2018-02-12T21:31:40.279Z,36.07
2018-02-12T21:34:08.457Z,34.50
2018-02-12T21:36:36.641Z,32.87
2018-02-12T21:39:04.853Z,33.77
2018-02-12T21:41:33.795Z,36.80
2018-02-12T21:44:01.970Z,37.87
2018-02-12T21:46:30.160Z,36.93
2018-02-12T21:48:58.327Z,35.40
2018-02-12T21:51:26.505Z,32.13
2018-02-12T21:53:54.682Z,34.70
2018-02-12T21:56:22.868Z,36.57
2018-02-12T21:58:51.038Z,34.27
2018-02-12T22:01:19.286Z,38.77
2018-02-12T22:03:47.450Z,38.43
2018-02-12T22:06:15.630Z,38.83
2018-02-12T22:08:43.824Z,40.43
2018-02-12T22:11:12.024Z,41.87
2018-02-12T22:13:40.203Z,44.80
2018-02-12T22:16:08.380Z,46.23
2018-02-12T22:18:36.556Z,43.23
2018-02-12T22:21:04.745Z,39.53
2018-02-12T22:23:32.951Z,45.03
2018-02-12T22:26:01.127Z,38.23
2018-02-12T22:28:29.302Z,38.20
2018-02-12T22:30:57.472Z,34.83
2018-02-12T22:33:25.642Z,46.10
2018-02-12T22:35:53.809Z,44.10
2018-02-12T22:38:21.981Z,37.37
2018-02-12T22:40:50.156Z,48.60
2018-02-12T22:43:18.332Z,44.20
2018-02-12T22:45:46.501Z,30.37
2018-02-12T22:48:14.666Z,29.40
2018-02-12T22:50:43.592Z,26.60
2018-02-12T22:53:11.762Z,24.80
2018-02-12T22:55:39.937Z,26.30
2018-02-12T22:58:08.110Z,28.83
2018-02-12T23:00:36.281Z,26.97
2018-02-12T23:03:04.459Z,31.27
2018-02-12T23:05:32.636Z,28.33
2018-02-12T23:08:00.798Z,27.30
2018-02-12T23:10:28.973Z,25.23
2018-02-12T23:12:57.137Z,30.30
2018-02-12T23:15:30.809Z,25.53
2018-02-12T23:17:58.982Z,24.13
2018-02-12T23:20:27.154Z,24.47
2018-02-12T23:22:55.333Z,23.90
2018-02-12T23:25:23.521Z,21.60
2018-02-12T23:27:52.451Z,22.43
2018-02-12T23:30:20.632Z,19.40
2018-02-12T23:32:48.807Z,18.13
2018-02-12T23:35:16.970Z,20.47
2018-02-12T23:37:45.128Z,18.27
2018-02-12T23:40:13.302Z,20.67
2018-02-12T23:42:41.481Z,19.60
2018-02-12T23:45:10.418Z,16.57
2018-02-12T23:47:38.592Z,19.20
2018-02-12T23:50:06.783Z,15.60
2018-02-12T23:52:35.001Z,19.30
2018-02-12T23:55:03.910Z,15.33
2018-02-12T23:57:32.111Z,18.57
